LavenderCAM.net
Leatherhead Weather
 
Leatherhead Weather
 
 





Aviation weather for

London Heathrow (EGLL) and London Gatwick (EGKK)



London Heathrow (EGLL) METAR / Surface Actual
London / Heathrow Airport, United Kingdom (EGLL) 51-29N 000-27W 0M
Dec 05, 2019 - 04:20 PM EST / 2019.12.05 2120 UTC
Wind: from the SW (230 degrees) at 20 MPH (17 KT):0
Visibility: greater than 7 mile(s):0
Sky conditions: overcast
Temperature: 50 F (10 C)
Dew Point: 44 F (7 C)
Relative Humidity: 81%
Pressure (altimeter): 29.94 in. Hg (1014 hPa)
ob: EGLL 052120Z AUTO 23017KT 9999 BKN019 OVC038 10/07 Q1014 NOSIG
cycle: 21
London Heathrow (EGLL) TAF / Forecast
2019/12/05 18:25
TAF COR EGLL 051721Z 0518/0624 22012KT 9999 SCT020 
      TEMPO 0518/0614 23015G25KT 
      BECMG 0519/0522 BKN012 
      TEMPO 0521/0613 6000 -RADZ PROB40 
      TEMPO 0521/0612 3000 RADZ BKN006 
      BECMG 0612/0615 SCT020 
      TEMPO 0614/0619 25018G28KT 7000 SHRA BKN012 
      BECMG 0615/0618 27012KT PROB30 
      TEMPO 0615/0618 4000 +SHRA


London Gatwick (EGKK) METAR / Surface Actual
London / Gatwick Airport, United Kingdom (EGKK) 51-09N 000-11W 0M
Dec 05, 2019 - 04:20 PM EST / 2019.12.05 2120 UTC
Wind: from the SW (230 degrees) at 14 MPH (12 KT):0
Visibility: greater than 7 mile(s):0
Sky conditions: mostly cloudy
Temperature: 50 F (10 C)
Dew Point: 44 F (7 C)
Relative Humidity: 81%
Pressure (altimeter): 29.97 in. Hg (1015 hPa)
ob: EGKK 052120Z 23012KT 9999 FEW021 BKN027 10/07 Q1015
cycle: 21
London Gatwick (EGKK) TAF / Forecast
2019/12/05 18:09
TAF EGKK 051658Z 0518/0624 23012KT 9999 SCT040 
      TEMPO 0518/0612 24015G25KT 
      BECMG 0520/0523 8000 BKN014 PROB40 
      TEMPO 0600/0612 3000 RADZ BKN004 
      BECMG 0610/0613 9999 SCT030 PROB30 
      TEMPO 0613/0619 26015G25KT 7000 SHRA